Dina Trader — ZDIW5 — position and weather

sailwx.info

Track history (hours):
 
Tides and Currents Weather Stations Pressure Air Temp Water Temp Dewpoint Dewpoint Depression Visibility Wind Speed Wind Dir Waves Ship Positions

Dina Trader

Last reported at 2017-Oct-19 10:43 UTC. Time now 2017-Oct-19 11:26 UTC.
Position N 60°00' E 029°39'.

Length 134 m; draft 8 m.

Type: Ship. MMSI: 236490000.

Date/timePositionNaut miles runAvg speedWind from/ knotsBaromVisibWave heightAir tempDewpointWater temp
2017-Oct-19 10:43N 60°00' E 029°39'311.2
2017-Oct-19 10:28N 59°59' E 029°44'510.3
2017-Oct-19 10:00N 59°57' E 029°52'611.3
2017-Oct-19 09:30N 59°55' E 030°03'4 8.3
2017-Oct-19 09:00N 59°53' E 030°10'1 2.1
2017-Oct-19 08:30N 59°52' E 030°12'0 0.0
2017-Oct-19 07:58N 59°52' E 030°12'0 0.0
2017-Oct-19 07:28N 59°52' E 030°12'0 0.0
2017-Oct-19 07:01N 59°52' E 030°12'0 0.0
2017-Oct-19 06:21N 59°52' E 030°12'0 0.0
2017-Oct-19 06:00N 59°52' E 030°12'0 0.0
2017-Oct-19 05:30N 59°52' E 030°12'0 0.0
2017-Oct-19 05:00N 59°52' E 030°12'0 0.0
2017-Oct-19 04:29N 59°52' E 030°12'0 0.0
2017-Oct-19 03:59N 59°52' E 030°12'0 0.0
2017-Oct-19 03:29N 59°52' E 030°12'0 0.0
2017-Oct-19 02:59N 59°52' E 030°12'0 0.0
2017-Oct-19 02:29N 59°52' E 030°12'0 0.0
2017-Oct-19 01:58N 59°52' E 030°12'0 0.0
2017-Oct-19 01:28N 59°52' E 030°12'0 0.0
2017-Oct-19 00:58N 59°52' E 030°12'0 0.0
2017-Oct-19 00:28N 59°52' E 030°12'0 0.0
2017-Oct-19 00:00N 59°52' E 030°12'0 0.0
2017-Oct-18 23:30N 59°52' E 030°12'0 0.0
2017-Oct-18 22:54N 59°52' E 030°12'0 0.0
2017-Oct-18 22:30N 59°52' E 030°12'0 0.0
2017-Oct-18 21:57N 59°52' E 030°12'0 0.0
2017-Oct-18 21:29N 59°52' E 030°12'0 0.0
2017-Oct-18 20:56N 59°52' E 030°12'0 0.0
2017-Oct-18 20:29N 59°52' E 030°12'0 0.0
2017-Oct-18 19:59N 59°52' E 030°12'0 0.0
2017-Oct-18 19:29N 59°52' E 030°12'0 0.0
2017-Oct-18 18:58N 59°52' E 030°12'0 0.0
2017-Oct-18 18:28N 59°52' E 030°12'0 0.0
2017-Oct-18 17:58N 59°52' E 030°12'0 0.0
2017-Oct-18 17:28N 59°52' E 030°12'0 0.0
2017-Oct-18 17:00N 59°52' E 030°12'0 0.0
2017-Oct-18 16:30N 59°52' E 030°12'0 0.0
2017-Oct-18 16:00N 59°52' E 030°12'0 0.0
2017-Oct-18 15:30N 59°52' E 030°12'0 0.0
2017-Oct-18 15:00N 59°52' E 030°12'0 0.0
2017-Oct-18 13:59N 59°52' E 030°12'0 0.0
2017-Oct-18 13:30N 59°52' E 030°12'2 3.1
2017-Oct-18 13:00N 59°53' E 030°09'4 8.2
2017-Oct-18 12:30N 59°55' E 030°02'612.3
2017-Oct-18 12:00N 59°57' E 029°50'4 8.0
2017-Oct-18 11:30N 59°59' E 029°43'3 4.2
2017-Oct-18 10:47N 59°56' E 029°42'0 0.0
2017-Oct-18 10:20N 59°56' E 029°42'0 0.0
2017-Oct-18 09:20N 59°56' E 029°42'0 0.0
2017-Oct-18 08:52N 59°56' E 029°42'0 0.0
2017-Oct-18 08:28N 59°56' E 029°42'0 0.0
2017-Oct-18 07:58N 59°56' E 029°42'0 0.0
2017-Oct-18 07:28N 59°56' E 029°42'0 0.0
2017-Oct-18 06:45N 59°56' E 029°42'0 0.0
2017-Oct-18 06:27N 59°56' E 029°42'0 0.0
2017-Oct-18 06:00N 59°56' E 029°42'0 0.0
2017-Oct-18 05:30N 59°56' E 029°42'0 0.0
2017-Oct-18 04:57N 59°56' E 029°42'0 0.0
2017-Oct-18 04:29N 59°56' E 029°42'0 0.0
2017-Oct-18 03:59N 59°56' E 029°42'0 0.0
2017-Oct-18 03:29N 59°56' E 029°42'0 0.0
2017-Oct-18 03:00N 59°56' E 029°42'0 0.6
2017-Oct-18 02:30N 59°56' E 029°42'3 6.0
2017-Oct-18 02:00N 59°59' E 029°43'4 8.6
2017-Oct-18 01:30N 60°01' E 029°35'5 9.2
2017-Oct-18 00:55N 60°02' E 029°24'713.9
2017-Oct-18 00:27N 60°02' E 029°11'613.7
2017-Oct-18 00:00N 60°02' E 028°59'713.7
2017-Oct-17 23:31N 60°02' E 028°45'714.9
2017-Oct-17 23:01N 60°03' E 028°30'815.4
2017-Oct-17 22:31N 60°06' E 028°17'917.2
2017-Oct-17 22:00N 60°09' E 028°00'917.1
2017-Oct-17 21:31N 60°10' E 027°43'917.2
2017-Oct-17 21:00N 60°05' E 027°28'918.8
2017-Oct-17 20:30N 60°01' E 027°12'918.1
2017-Oct-17 20:00N 59°59' E 026°54'713.8
2017-Oct-17 19:30N 59°60' E 026°41'917.4
2017-Oct-17 19:01N 59°58' E 026°24'3017.6
2017-Oct-17 17:19N 59°50' E 025°26'617.7
2017-Oct-17 17:00N 59°49' E 025°15'917.8
2017-Oct-17 16:31N 59°47' E 024°59'917.8
2017-Oct-17 16:00N 59°45' E 024°41'917.8
2017-Oct-17 15:31N 59°43' E 024°24'1017.6
2017-Oct-17 14:56N 59°40' E 024°05'717.6
2017-Oct-17 14:30N 59°38' E 023°51'917.8
2017-Oct-17 14:00N 59°35' E 023°34'917.5
2017-Oct-17 13:30N 59°32' E 023°18'1017.3
2017-Oct-17 12:54N 59°29' E 022°58'21117.4
2017-Oct-17 00:44N 56°51' E 018°32'817.3
2017-Oct-17 00:16N 56°46' E 018°22'517.5
2017-Oct-17 00:00N 56°43' E 018°15'1017.2
2017-Oct-16 23:27N 56°37' E 018°02'917.3
2017-Oct-16 22:57N 56°31' E 017°50'1717.6
2017-Oct-16 22:00N 56°21' E 017°26'1217.2
2017-Oct-16 21:18N 56°14' E 017°09'517.1
2017-Oct-16 21:00N 56°11' E 017°02'917.2
2017-Oct-16 20:30N 56°05' E 016°49'917.2
2017-Oct-16 20:00N 56°01' E 016°36'817.0
2017-Oct-16 19:30N 55°56' E 016°23'816.5
2017-Oct-16 19:00N 55°52' E 016°10'816.8
2017-Oct-16 18:30N 55°49' E 015°57'917.1
2017-Oct-16 18:00N 55°45' E 015°43'917.4
2017-Oct-16 17:30N 55°40' E 015°30'917.6
2017-Oct-16 17:00N 55°36' E 015°17'917.6
2017-Oct-16 16:30N 55°31' E 015°03'917.7
2017-Oct-16 16:00N 55°27' E 014°50'917.2
2017-Oct-16 15:30N 55°22' E 014°37'917.3
2017-Oct-16 15:00N 55°16' E 014°27'917.1
2017-Oct-16 14:30N 55°09' E 014°18'2116.3
2017-Oct-16 13:15N 54°58' E 013°48'817.3
2017-Oct-16 12:48N 54°55' E 013°35'617.3
2017-Oct-16 12:29N 54°53' E 013°26'917.9
2017-Oct-16 11:59N 54°50' E 013°12'817.3
2017-Oct-16 11:30N 54°48' E 012°58'917.1
2017-Oct-16 11:00N 54°45' E 012°44'816.9
2017-Oct-16 10:30N 54°40' E 012°31'816.1
2017-Oct-16 09:59N 54°36' E 012°19'715.4
2017-Oct-16 09:30N 54°29' E 012°14'713.9
2017-Oct-16 09:00N 54°24' E 012°05'815.9
2017-Oct-16 08:30N 54°25' E 011°51'815.5
2017-Oct-16 08:00N 54°27' E 011°39'816.0
2017-Oct-16 07:30N 54°30' E 011°26'816.0
2017-Oct-16 07:00N 54°34' E 011°14'815.2
2017-Oct-16 06:30N 54°35' E 011°01'816.7
2017-Oct-16 06:00N 54°35' E 010°47'816.7
2017-Oct-16 05:30N 54°33' E 010°33'816.2
2017-Oct-16 05:00N 54°30' E 010°20'612.4
2017-Oct-16 04:30N 54°25' E 010°13'4 7.8
2017-Oct-16 04:00N 54°22' E 010°09'4 3.0
2017-Oct-16 02:36N 54°22' E 010°01'1 7.1
2017-Oct-16 02:29N 54°21' E 010°00'4 6.3
2017-Oct-16 01:55N 54°21' E 009°54'3 7.6
2017-Oct-16 01:30N 54°22' E 009°49'4 8.3
2017-Oct-16 01:00N 54°19' E 009°43'4 7.2
2017-Oct-16 00:30N 54°17' E 009°39'4 8.0
2017-Oct-16 00:00N 54°13' E 009°36'4 8.3
2017-Oct-15 23:30N 54°11' E 009°30'4 8.5
2017-Oct-15 23:00N 54°09' E 009°23'4 7.1
2017-Oct-15 22:30N 54°06' E 009°20'4 8.3
2017-Oct-15 22:00N 54°02' E 009°18'4 8.2
2017-Oct-15 21:30N 53°59' E 009°16'2 4.9
2017-Oct-15 21:01N 53°57' E 009°14'0 0.0
2017-Oct-15 20:30N 53°57' E 009°14'0 0.8
2017-Oct-15 20:00N 53°56' E 009°13'3 5.5
2017-Oct-15 19:30N 53°54' E 009°10'1 2.2
2017-Oct-15 19:00N 53°54' E 009°09'1 2.6
2017-Oct-15 18:30N 53°53' E 009°07'2 4.0
2017-Oct-15 18:01N 53°53' E 009°10'3 6.6
2017-Oct-15 17:31N 53°52' E 009°15'815.5
2017-Oct-15 17:00N 53°46' E 009°24'714.3
2017-Oct-15 16:30N 53°40' E 009°30'713.8
2017-Oct-15 16:01N 53°35' E 009°37'612.2
2017-Oct-15 15:30N 53°33' E 009°47'4 9.0
2017-Oct-15 15:01N 53°32' E 009°54'1 0.7
2017-Oct-15 13:58N 53°32' E 009°56'0 0.0
2017-Oct-15 13:28N 53°32' E 009°56'0 0.0
2017-Oct-15 13:01N 53°32' E 009°56'0 0.0
2017-Oct-15 12:30N 53°32' E 009°56'0 0.0
2017-Oct-15 12:00N 53°32' E 009°56'0 0.0
2017-Oct-15 11:30N 53°32' E 009°56'0 0.0
2017-Oct-15 11:00N 53°32' E 009°56'0 0.0
2017-Oct-15 10:30N 53°32' E 009°56'0 0.0
2017-Oct-15 09:59N 53°32' E 009°56'0 0.0
2017-Oct-15 09:29N 53°32' E 009°56'0 0.0
2017-Oct-15 08:59N 53°32' E 009°56'0 0.0
2017-Oct-15 08:29N 53°32' E 009°56'0 0.0
2017-Oct-15 07:58N 53°32' E 009°56'0 0.0
2017-Oct-15 07:28N 53°32' E 009°56'0 0.0
2017-Oct-15 06:58N 53°32' E 009°56'0 0.0
2017-Oct-15 06:28N 53°32' E 009°56'0 0.0
2017-Oct-15 06:01N 53°32' E 009°56'0 0.0
2017-Oct-15 05:30N 53°32' E 009°56'0 0.0
2017-Oct-15 05:00N 53°32' E 009°56'0 0.0
2017-Oct-15 04:30N 53°32' E 009°56'0 0.0
2017-Oct-15 03:57N 53°32' E 009°56'0 0.0
2017-Oct-15 03:29N 53°32' E 009°56'0 0.0
2017-Oct-15 02:59N 53°32' E 009°56'0 0.0
2017-Oct-15 02:29N 53°32' E 009°56'0 0.0
2017-Oct-15 01:56N 53°32' E 009°56'0 0.0
2017-Oct-15 01:29N 53°32' E 009°56'0 0.0
2017-Oct-15 00:58N 53°32' E 009°56'0 0.0
2017-Oct-15 00:28N 53°32' E 009°56'0 0.0
2017-Oct-14 23:58N 53°32' E 009°56'0 0.0
2017-Oct-14 23:25N 53°32' E 009°56'0 0.0
2017-Oct-14 23:01N 53°32' E 009°56'0 0.0
2017-Oct-14 22:30N 53°32' E 009°56'0 0.0
2017-Oct-14 22:00N 53°32' E 009°56'0 0.0
2017-Oct-14 21:30N 53°32' E 009°56'0 0.0
2017-Oct-14 21:00N 53°32' E 009°56'0 0.0
2017-Oct-14 20:29N 53°32' E 009°56'0 0.0
2017-Oct-14 19:59N 53°32' E 009°56'0 0.0
2017-Oct-14 19:29N 53°32' E 009°56'0 0.0
2017-Oct-14 18:59N 53°32' E 009°56'0 0.0
2017-Oct-14 18:29N 53°32' E 009°56'0 0.0
2017-Oct-14 17:58N 53°32' E 009°56'0 0.0
2017-Oct-14 17:28N 53°32' E 009°56'0 0.0
2017-Oct-14 16:58N 53°32' E 009°56'0 0.0
2017-Oct-14 16:28N 53°32' E 009°56'0 0.0
2017-Oct-14 16:01N 53°32' E 009°56'1 1.8
2017-Oct-14 15:31N 53°32' E 009°54'2 3.9
2017-Oct-14 15:01N 53°32' E 009°58'0 0.4
2017-Oct-14 14:30N 53°32' E 009°58'0 0.0
2017-Oct-14 13:59N 53°32' E 009°58'0 0.0
2017-Oct-14 13:29N 53°32' E 009°58'0 0.0
2017-Oct-14 12:59N 53°32' E 009°58'0 0.0
2017-Oct-14 12:29N 53°32' E 009°58'0 0.0
2017-Oct-14 11:58N 53°32' E 009°58'0 0.0
2017-Oct-14 11:28N 53°32' E 009°58'0 0.0
2017-Oct-14 10:58N 53°32' E 009°58'0 0.0
2017-Oct-14 10:28N 53°32' E 009°58'0 0.0
2017-Oct-14 09:58N 53°32' E 009°58'0 0.0
2017-Oct-14 09:30N 53°32' E 009°58'0 0.0
2017-Oct-14 09:00N 53°32' E 009°58'0 0.0
2017-Oct-14 08:30N 53°32' E 009°58'0 0.0
2017-Oct-14 08:00N 53°32' E 009°58'0 0.0
2017-Oct-14 07:30N 53°32' E 009°58'0 0.0
2017-Oct-14 06:59N 53°32' E 009°58'0 0.0
2017-Oct-14 06:29N 53°32' E 009°58'0 0.0
2017-Oct-14 05:59N 53°32' E 009°58'0 0.0
2017-Oct-14 05:26N 53°32' E 009°58'0 0.0
2017-Oct-14 04:59N 53°32' E 009°58'0 0.0
2017-Oct-14 04:28N 53°32' E 009°58'0 0.0
2017-Oct-14 03:58N 53°32' E 009°58'0 0.0
2017-Oct-14 03:28N 53°32' E 009°58'0 0.0
2017-Oct-14 02:58N 53°32' E 009°58'0 0.0
2017-Oct-14 02:30N 53°32' E 009°58'0 0.0
2017-Oct-14 02:00N 53°32' E 009°58'0 0.0
2017-Oct-14 01:30N 53°32' E 009°58'0 0.0
2017-Oct-14 01:00N 53°32' E 009°58'0 0.0
2017-Oct-14 00:30N 53°32' E 009°58'0 0.0
2017-Oct-13 23:59N 53°32' E 009°58'0 0.0
2017-Oct-13 23:29N 53°32' E 009°58'0 0.0
2017-Oct-13 22:59N 53°32' E 009°58'0 0.0
2017-Oct-13 22:29N 53°32' E 009°58'0 0.0
2017-Oct-13 21:58N 53°32' E 009°58'0 0.0
2017-Oct-13 21:28N 53°32' E 009°58'0 0.0
2017-Oct-13 20:58N 53°32' E 009°58'0 0.0
2017-Oct-13 20:28N 53°32' E 009°58'0 0.0
2017-Oct-13 19:58N 53°32' E 009°58'0 0.0
2017-Oct-13 19:30N 53°32' E 009°58'0 0.0
2017-Oct-13 18:57N 53°32' E 009°58'0 0.0
2017-Oct-13 18:30N 53°32' E 009°58'1 2.6
2017-Oct-13 18:01N 53°32' E 009°56'2 4.5
2017-Oct-13 17:29N 53°30' E 009°56'0 0.0
2017-Oct-13 16:59N 53°30' E 009°56'0 0.0
2017-Oct-13 16:29N 53°30' E 009°56'0 0.0
2017-Oct-13 15:58N 53°30' E 009°56'0 0.0
2017-Oct-13 15:28N 53°30' E 009°56'0 0.0
2017-Oct-13 14:58N 53°30' E 009°56'0 0.0
2017-Oct-13 14:28N 53°30' E 009°56'0 0.0
2017-Oct-13 14:00N 53°30' E 009°56'1 1.8
2017-Oct-13 13:31N 53°31' E 009°56'1 2.4
2017-Oct-13 13:00N 53°32' E 009°57'0 0.0
2017-Oct-13 12:30N 53°32' E 009°57'0 0.0
2017-Oct-13 12:00N 53°32' E 009°57'0 0.0
2017-Oct-13 11:30N 53°32' E 009°57'0 0.0
2017-Oct-13 11:00N 53°32' E 009°57'0 0.0
2017-Oct-13 10:29N 53°32' E 009°57'0 0.0
2017-Oct-13 09:59N 53°32' E 009°57'0 0.0
2017-Oct-13 09:29N 53°32' E 009°57'0 0.0
2017-Oct-13 08:59N 53°32' E 009°57'0 0.0
2017-Oct-13 08:28N 53°32' E 009°57'0 0.0
2017-Oct-13 07:58N 53°32' E 009°57'0 0.0
2017-Oct-13 07:28N 53°32' E 009°57'0 0.0
2017-Oct-13 06:58N 53°32' E 009°57'0 0.0
2017-Oct-13 06:30N 53°32' E 009°57'0 0.0
2017-Oct-13 06:00N 53°32' E 009°57'0 0.0
2017-Oct-13 05:30N 53°32' E 009°57'0 0.0
2017-Oct-13 05:00N 53°32' E 009°57'0 0.0
2017-Oct-13 04:30N 53°32' E 009°57'0 0.0
2017-Oct-13 03:59N 53°32' E 009°57'0 0.0
2017-Oct-13 03:30N 53°32' E 009°57'1 2.7
2017-Oct-13 03:00N 53°32' E 009°55'4 8.9
2017-Oct-13 02:30N 53°33' E 009°47'611.5
2017-Oct-13 02:00N 53°35' E 009°38'612.8
2017-Oct-13 01:30N 53°39' E 009°31'612.5
2017-Oct-13 01:01N 53°45' E 009°25'713.1
2017-Oct-13 00:30N 53°50' E 009°20'612.6
2017-Oct-13 00:00N 53°53' E 009°10'1 2.4
2017-Oct-12 23:30N 53°54' E 009°09'1 1.1
2017-Oct-12 23:00N 53°54' E 009°09'3 6.7
2017-Oct-12 22:30N 53°56' E 009°13'3 7.0
2017-Oct-12 22:00N 53°59' E 009°17'3 7.0
2017-Oct-12 21:30N 54°03' E 009°18'3 7.0
2017-Oct-12 21:01N 54°06' E 009°20'3 6.5
2017-Oct-12 20:31N 54°09' E 009°22'2 4.0
2017-Oct-12 20:00N 54°10' E 009°25'3 6.7
2017-Oct-12 19:30N 54°11' E 009°30'4 7.0
2017-Oct-12 19:00N 54°13' E 009°35'3 6.6
2017-Oct-12 18:30N 54°16' E 009°38'3 6.6
2017-Oct-12 18:01N 54°18' E 009°42'2 4.6
2017-Oct-12 17:30N 54°20' E 009°44'2 3.8
2017-Oct-12 17:00N 54°21' E 009°46'4 6.5
2017-Oct-12 16:27N 54°21' E 009°53'23 5.6
2017-Oct-12 12:22N 54°32' E 010°28'512.6
2017-Oct-12 12:00N 54°34' E 010°35'612.9
2017-Oct-12 11:31N 54°35' E 010°46'612.8
2017-Oct-12 11:00N 54°36' E 010°57'612.0
2017-Oct-12 10:30N 54°36' E 011°07'611.9
2017-Oct-12 10:00N 54°34' E 011°17'612.0
2017-Oct-12 09:30N 54°32' E 011°26'611.7
2017-Oct-12 09:00N 54°29' E 011°35'611.9
2017-Oct-12 08:30N 54°27' E 011°45'811.8
2017-Oct-12 07:47N 54°26' E 011°59'312.2
2017-Oct-12 07:30N 54°26' E 012°05'510.6
2017-Oct-12 07:00N 54°29' E 012°13'612.6
2017-Oct-12 06:30N 54°35' E 012°14'611.7
2017-Oct-12 06:00N 54°39' E 012°21'6412.5
2017-Oct-12 00:55N 55°04' E 014°03'512.1
2017-Oct-12 00:30N 55°08' E 014°10'712.4
2017-Oct-11 23:58N 55°13' E 014°18'612.4
2017-Oct-11 23:30N 55°17' E 014°24'612.1
2017-Oct-11 23:00N 55°22' E 014°30'612.2
2017-Oct-11 22:30N 55°26' E 014°37'712.5
2017-Oct-11 21:58N 55°30' E 014°47'712.5
2017-Oct-11 21:23N 55°34' E 014°59'512.6
2017-Oct-11 21:00N 55°36' E 015°06'612.6
2017-Oct-11 20:30N 55°39' E 015°15'612.7
2017-Oct-11 20:01N 55°42' E 015°25'612.8
2017-Oct-11 19:30N 55°45' E 015°35'612.9
2017-Oct-11 19:01N 55°49' E 015°45'713.1
2017-Oct-11 18:31N 55°52' E 015°55'713.1
2017-Oct-11 18:00N 55°55' E 016°05'713.3
2017-Oct-11 17:30N 55°59' E 016°16'713.6
2017-Oct-11 17:00N 56°02' E 016°26'29713.3
2017-Oct-10 18:45N 59°34' E 022°56'314.1
2017-Oct-10 18:30N 59°35' E 023°02'714.0
2017-Oct-10 18:01N 59°37' E 023°15'714.1
2017-Oct-10 17:30N 59°39' E 023°29'714.1
2017-Oct-10 17:00N 59°41' E 023°42'714.3
2017-Oct-10 16:30N 59°43' E 023°55'714.2
2017-Oct-10 16:00N 59°45' E 024°09'26 2.0
2017-Oct-10 03:03N 59°52' E 024°58'1 4.5
2017-Oct-10 02:50N 59°51' E 024°58'2 4.6
2017-Oct-10 02:30N 59°50' E 024°56'2 4.6
2017-Oct-10 02:00N 59°48' E 024°55'2 4.7
2017-Oct-10 01:31N 59°45' E 024°54'2 4.8
2017-Oct-10 01:00N 59°43' E 024°52'2 4.8
2017-Oct-10 00:31N 59°41' E 024°50'2 4.7
2017-Oct-10 00:00N 59°39' E 024°49'3 5.1
2017-Oct-09 23:31N 59°36' E 024°51'3 6.6
2017-Oct-09 23:00N 59°34' E 024°55'4 8.5
2017-Oct-09 22:30N 59°30' E 024°58'0 0.4
2017-Oct-09 22:00N 59°29' E 024°58'0 0.0
2017-Oct-09 21:28N 59°29' E 024°58'0 0.0
2017-Oct-09 21:00N 59°29' E 024°58'0 0.0
2017-Oct-09 20:28N 59°29' E 024°58'0 0.0
2017-Oct-09 19:58N 59°29' E 024°58'0 0.0
2017-Oct-09 19:28N 59°29' E 024°58'0 0.0
2017-Oct-09 19:00N 59°29' E 024°58'0 0.0
2017-Oct-09 18:30N 59°29' E 024°58'0 0.0
2017-Oct-09 18:00N 59°29' E 024°58'0 0.0
2017-Oct-09 17:30N 59°29' E 024°58'0 0.0
2017-Oct-09 16:59N 59°29' E 024°58'0 0.0
2017-Oct-09 16:29N 59°29' E 024°58'0 0.0
2017-Oct-09 15:59N 59°29' E 024°58'0 0.0
2017-Oct-09 15:29N 59°29' E 024°58'0 0.0
2017-Oct-09 15:00N 59°29' E 024°58'0 0.0
2017-Oct-09 14:30N 59°29' E 024°58'0 0.0
2017-Oct-09 14:00N 59°29' E 024°58'0 0.0
2017-Oct-09 13:30N 59°29' E 024°58'0 0.0
2017-Oct-09 12:59N 59°29' E 024°58'0 0.0
2017-Oct-09 12:26N 59°29' E 024°58'0 0.0
2017-Oct-09 11:59N 59°29' E 024°58'0 0.0
2017-Oct-09 11:29N 59°29' E 024°58'0 0.0
2017-Oct-09 10:59N 59°29' E 024°58'  
Track history (hours):
 
Tides and Currents Weather Stations Pressure Air Temp Water Temp Dewpoint Dewpoint Depression Visibility Wind Speed Wind Dir Waves Ship Positions

Dina Trader

Last reported at 2017-Oct-19 10:43 UTC. Time now 2017-Oct-19 11:26 UTC.
Position N 60°00' E 029°39'.

Length 134 m; draft 8 m.

Type: Ship. MMSI: 236490000.

Date/timePositionNaut miles runAvg speedWind from/ knotsBaromVisibWave heightAir tempDewpointWater temp
2017-Oct-19 10:43N 60°00' E 029°39'311.2
2017-Oct-19 10:28N 59°59' E 029°44'510.3
2017-Oct-19 10:00N 59°57' E 029°52'611.3
2017-Oct-19 09:30N 59°55' E 030°03'4 8.3
2017-Oct-19 09:00N 59°53' E 030°10'1 2.1
2017-Oct-19 08:30N 59°52' E 030°12'0 0.0
2017-Oct-19 07:58N 59°52' E 030°12'0 0.0
2017-Oct-19 07:28N 59°52' E 030°12'0 0.0
2017-Oct-19 07:01N 59°52' E 030°12'0 0.0
2017-Oct-19 06:21N 59°52' E 030°12'0 0.0
2017-Oct-19 06:00N 59°52' E 030°12'0 0.0
2017-Oct-19 05:30N 59°52' E 030°12'0 0.0
2017-Oct-19 05:00N 59°52' E 030°12'0 0.0
2017-Oct-19 04:29N 59°52' E 030°12'0 0.0
2017-Oct-19 03:59N 59°52' E 030°12'0 0.0
2017-Oct-19 03:29N 59°52' E 030°12'0 0.0
2017-Oct-19 02:59N 59°52' E 030°12'0 0.0
2017-Oct-19 02:29N 59°52' E 030°12'0 0.0
2017-Oct-19 01:58N 59°52' E 030°12'0 0.0
2017-Oct-19 01:28N 59°52' E 030°12'0 0.0
2017-Oct-19 00:58N 59°52' E 030°12'0 0.0
2017-Oct-19 00:28N 59°52' E 030°12'0 0.0
2017-Oct-19 00:00N 59°52' E 030°12'0 0.0
2017-Oct-18 23:30N 59°52' E 030°12'0 0.0
2017-Oct-18 22:54N 59°52' E 030°12'0 0.0
2017-Oct-18 22:30N 59°52' E 030°12'0 0.0
2017-Oct-18 21:57N 59°52' E 030°12'0 0.0
2017-Oct-18 21:29N 59°52' E 030°12'0 0.0
2017-Oct-18 20:56N 59°52' E 030°12'0 0.0
2017-Oct-18 20:29N 59°52' E 030°12'0 0.0
2017-Oct-18 19:59N 59°52' E 030°12'0 0.0
2017-Oct-18 19:29N 59°52' E 030°12'0 0.0
2017-Oct-18 18:58N 59°52' E 030°12'0 0.0
2017-Oct-18 18:28N 59°52' E 030°12'0 0.0
2017-Oct-18 17:58N 59°52' E 030°12'0 0.0
2017-Oct-18 17:28N 59°52' E 030°12'0 0.0
2017-Oct-18 17:00N 59°52' E 030°12'0 0.0
2017-Oct-18 16:30N 59°52' E 030°12'0 0.0
2017-Oct-18 16:00N 59°52' E 030°12'0 0.0
2017-Oct-18 15:30N 59°52' E 030°12'0 0.0
2017-Oct-18 15:00N 59°52' E 030°12'0 0.0
2017-Oct-18 13:59N 59°52' E 030°12'0 0.0
2017-Oct-18 13:30N 59°52' E 030°12'2 3.1
2017-Oct-18 13:00N 59°53' E 030°09'4 8.2
2017-Oct-18 12:30N 59°55' E 030°02'612.3
2017-Oct-18 12:00N 59°57' E 029°50'4 8.0
2017-Oct-18 11:30N 59°59' E 029°43'3 4.2
2017-Oct-18 10:47N 59°56' E 029°42'0 0.0
2017-Oct-18 10:20N 59°56' E 029°42'0 0.0
2017-Oct-18 09:20N 59°56' E 029°42'0 0.0
2017-Oct-18 08:52N 59°56' E 029°42'0 0.0
2017-Oct-18 08:28N 59°56' E 029°42'0 0.0
2017-Oct-18 07:58N 59°56' E 029°42'0 0.0
2017-Oct-18 07:28N 59°56' E 029°42'0 0.0
2017-Oct-18 06:45N 59°56' E 029°42'0 0.0
2017-Oct-18 06:27N 59°56' E 029°42'0 0.0
2017-Oct-18 06:00N 59°56' E 029°42'0 0.0
2017-Oct-18 05:30N 59°56' E 029°42'0 0.0
2017-Oct-18 04:57N 59°56' E 029°42'0 0.0
2017-Oct-18 04:29N 59°56' E 029°42'0 0.0
2017-Oct-18 03:59N 59°56' E 029°42'0 0.0
2017-Oct-18 03:29N 59°56' E 029°42'0 0.0
2017-Oct-18 03:00N 59°56' E 029°42'0 0.6
2017-Oct-18 02:30N 59°56' E 029°42'3 6.0
2017-Oct-18 02:00N 59°59' E 029°43'4 8.6
2017-Oct-18 01:30N 60°01' E 029°35'5 9.2
2017-Oct-18 00:55N 60°02' E 029°24'713.9
2017-Oct-18 00:27N 60°02' E 029°11'613.7
2017-Oct-18 00:00N 60°02' E 028°59'713.7
2017-Oct-17 23:31N 60°02' E 028°45'714.9
2017-Oct-17 23:01N 60°03' E 028°30'815.4
2017-Oct-17 22:31N 60°06' E 028°17'917.2
2017-Oct-17 22:00N 60°09' E 028°00'917.1
2017-Oct-17 21:31N 60°10' E 027°43'917.2
2017-Oct-17 21:00N 60°05' E 027°28'918.8
2017-Oct-17 20:30N 60°01' E 027°12'918.1
2017-Oct-17 20:00N 59°59' E 026°54'713.8
2017-Oct-17 19:30N 59°60' E 026°41'917.4
2017-Oct-17 19:01N 59°58' E 026°24'3017.6
2017-Oct-17 17:19N 59°50' E 025°26'617.7
2017-Oct-17 17:00N 59°49' E 025°15'917.8
2017-Oct-17 16:31N 59°47' E 024°59'917.8
2017-Oct-17 16:00N 59°45' E 024°41'917.8
2017-Oct-17 15:31N 59°43' E 024°24'1017.6
2017-Oct-17 14:56N 59°40' E 024°05'717.6
2017-Oct-17 14:30N 59°38' E 023°51'917.8
2017-Oct-17 14:00N 59°35' E 023°34'917.5
2017-Oct-17 13:30N 59°32' E 023°18'1017.3
2017-Oct-17 12:54N 59°29' E 022°58'21117.4
2017-Oct-17 00:44N 56°51' E 018°32'817.3
2017-Oct-17 00:16N 56°46' E 018°22'517.5
2017-Oct-17 00:00N 56°43' E 018°15'1017.2
2017-Oct-16 23:27N 56°37' E 018°02'917.3
2017-Oct-16 22:57N 56°31' E 017°50'1717.6
2017-Oct-16 22:00N 56°21' E 017°26'1217.2
2017-Oct-16 21:18N 56°14' E 017°09'517.1
2017-Oct-16 21:00N 56°11' E 017°02'917.2
2017-Oct-16 20:30N 56°05' E 016°49'917.2
2017-Oct-16 20:00N 56°01' E 016°36'817.0
2017-Oct-16 19:30N 55°56' E 016°23'816.5
2017-Oct-16 19:00N 55°52' E 016°10'816.8
2017-Oct-16 18:30N 55°49' E 015°57'917.1
2017-Oct-16 18:00N 55°45' E 015°43'917.4
2017-Oct-16 17:30N 55°40' E 015°30'917.6
2017-Oct-16 17:00N 55°36' E 015°17'917.6
2017-Oct-16 16:30N 55°31' E 015°03'917.7
2017-Oct-16 16:00N 55°27' E 014°50'917.2
2017-Oct-16 15:30N 55°22' E 014°37'917.3
2017-Oct-16 15:00N 55°16' E 014°27'917.1
2017-Oct-16 14:30N 55°09' E 014°18'2116.3
2017-Oct-16 13:15N 54°58' E 013°48'817.3
2017-Oct-16 12:48N 54°55' E 013°35'617.3
2017-Oct-16 12:29N 54°53' E 013°26'917.9
2017-Oct-16 11:59N 54°50' E 013°12'817.3
2017-Oct-16 11:30N 54°48' E 012°58'917.1
2017-Oct-16 11:00N 54°45' E 012°44'816.9
2017-Oct-16 10:30N 54°40' E 012°31'816.1
2017-Oct-16 09:59N 54°36' E 012°19'715.4
2017-Oct-16 09:30N 54°29' E 012°14'713.9
2017-Oct-16 09:00N 54°24' E 012°05'815.9
2017-Oct-16 08:30N 54°25' E 011°51'815.5
2017-Oct-16 08:00N 54°27' E 011°39'816.0
2017-Oct-16 07:30N 54°30' E 011°26'816.0
2017-Oct-16 07:00N 54°34' E 011°14'815.2
2017-Oct-16 06:30N 54°35' E 011°01'816.7
2017-Oct-16 06:00N 54°35' E 010°47'816.7
2017-Oct-16 05:30N 54°33' E 010°33'816.2
2017-Oct-16 05:00N 54°30' E 010°20'612.4
2017-Oct-16 04:30N 54°25' E 010°13'4 7.8
2017-Oct-16 04:00N 54°22' E 010°09'4 3.0
2017-Oct-16 02:36N 54°22' E 010°01'1 7.1
2017-Oct-16 02:29N 54°21' E 010°00'4 6.3
2017-Oct-16 01:55N 54°21' E 009°54'3 7.6
2017-Oct-16 01:30N 54°22' E 009°49'4 8.3
2017-Oct-16 01:00N 54°19' E 009°43'4 7.2
2017-Oct-16 00:30N 54°17' E 009°39'4 8.0
2017-Oct-16 00:00N 54°13' E 009°36'4 8.3
2017-Oct-15 23:30N 54°11' E 009°30'4 8.5
2017-Oct-15 23:00N 54°09' E 009°23'4 7.1
2017-Oct-15 22:30N 54°06' E 009°20'4 8.3
2017-Oct-15 22:00N 54°02' E 009°18'4 8.2
2017-Oct-15 21:30N 53°59' E 009°16'2 4.9
2017-Oct-15 21:01N 53°57' E 009°14'0 0.0
2017-Oct-15 20:30N 53°57' E 009°14'0 0.8
2017-Oct-15 20:00N 53°56' E 009°13'3 5.5
2017-Oct-15 19:30N 53°54' E 009°10'1 2.2
2017-Oct-15 19:00N 53°54' E 009°09'1 2.6
2017-Oct-15 18:30N 53°53' E 009°07'2 4.0
2017-Oct-15 18:01N 53°53' E 009°10'3 6.6
2017-Oct-15 17:31N 53°52' E 009°15'815.5
2017-Oct-15 17:00N 53°46' E 009°24'714.3
2017-Oct-15 16:30N 53°40' E 009°30'713.8
2017-Oct-15 16:01N 53°35' E 009°37'612.2
2017-Oct-15 15:30N 53°33' E 009°47'4 9.0
2017-Oct-15 15:01N 53°32' E 009°54'1 0.7
2017-Oct-15 13:58N 53°32' E 009°56'0 0.0
2017-Oct-15 13:28N 53°32' E 009°56'0 0.0
2017-Oct-15 13:01N 53°32' E 009°56'0 0.0
2017-Oct-15 12:30N 53°32' E 009°56'0 0.0
2017-Oct-15 12:00N 53°32' E 009°56'0 0.0
2017-Oct-15 11:30N 53°32' E 009°56'0 0.0
2017-Oct-15 11:00N 53°32' E 009°56'0 0.0
2017-Oct-15 10:30N 53°32' E 009°56'0 0.0
2017-Oct-15 09:59N 53°32' E 009°56'0 0.0
2017-Oct-15 09:29N 53°32' E 009°56'0 0.0
2017-Oct-15 08:59N 53°32' E 009°56'0 0.0
2017-Oct-15 08:29N 53°32' E 009°56'0 0.0
2017-Oct-15 07:58N 53°32' E 009°56'0 0.0
2017-Oct-15 07:28N 53°32' E 009°56'0 0.0
2017-Oct-15 06:58N 53°32' E 009°56'0 0.0
2017-Oct-15 06:28N 53°32' E 009°56'0 0.0
2017-Oct-15 06:01N 53°32' E 009°56'0 0.0
2017-Oct-15 05:30N 53°32' E 009°56'0 0.0
2017-Oct-15 05:00N 53°32' E 009°56'0 0.0
2017-Oct-15 04:30N 53°32' E 009°56'0 0.0
2017-Oct-15 03:57N 53°32' E 009°56'0 0.0
2017-Oct-15 03:29N 53°32' E 009°56'0 0.0
2017-Oct-15 02:59N 53°32' E 009°56'0 0.0
2017-Oct-15 02:29N 53°32' E 009°56'0 0.0
2017-Oct-15 01:56N 53°32' E 009°56'0 0.0
2017-Oct-15 01:29N 53°32' E 009°56'0 0.0
2017-Oct-15 00:58N 53°32' E 009°56'0 0.0
2017-Oct-15 00:28N 53°32' E 009°56'0 0.0
2017-Oct-14 23:58N 53°32' E 009°56'0 0.0
2017-Oct-14 23:25N 53°32' E 009°56'0 0.0
2017-Oct-14 23:01N 53°32' E 009°56'0 0.0
2017-Oct-14 22:30N 53°32' E 009°56'0 0.0
2017-Oct-14 22:00N 53°32' E 009°56'0 0.0
2017-Oct-14 21:30N 53°32' E 009°56'0 0.0
2017-Oct-14 21:00N 53°32' E 009°56'0 0.0
2017-Oct-14 20:29N 53°32' E 009°56'0 0.0
2017-Oct-14 19:59N 53°32' E 009°56'0 0.0
2017-Oct-14 19:29N 53°32' E 009°56'0 0.0
2017-Oct-14 18:59N 53°32' E 009°56'0 0.0
2017-Oct-14 18:29N 53°32' E 009°56'0 0.0
2017-Oct-14 17:58N 53°32' E 009°56'0 0.0
2017-Oct-14 17:28N 53°32' E 009°56'0 0.0
2017-Oct-14 16:58N 53°32' E 009°56'0 0.0
2017-Oct-14 16:28N 53°32' E 009°56'0 0.0
2017-Oct-14 16:01N 53°32' E 009°56'1 1.8
2017-Oct-14 15:31N 53°32' E 009°54'2 3.9
2017-Oct-14 15:01N 53°32' E 009°58'0 0.4
2017-Oct-14 14:30N 53°32' E 009°58'0 0.0
2017-Oct-14 13:59N 53°32' E 009°58'0 0.0
2017-Oct-14 13:29N 53°32' E 009°58'0 0.0
2017-Oct-14 12:59N 53°32' E 009°58'0 0.0
2017-Oct-14 12:29N 53°32' E 009°58'0 0.0
2017-Oct-14 11:58N 53°32' E 009°58'0 0.0
2017-Oct-14 11:28N 53°32' E 009°58'0 0.0
2017-Oct-14 10:58N 53°32' E 009°58'0 0.0
2017-Oct-14 10:28N 53°32' E 009°58'0 0.0
2017-Oct-14 09:58N 53°32' E 009°58'0 0.0
2017-Oct-14 09:30N 53°32' E 009°58'0 0.0
2017-Oct-14 09:00N 53°32' E 009°58'0 0.0
2017-Oct-14 08:30N 53°32' E 009°58'0 0.0
2017-Oct-14 08:00N 53°32' E 009°58'0 0.0
2017-Oct-14 07:30N 53°32' E 009°58'0 0.0
2017-Oct-14 06:59N 53°32' E 009°58'0 0.0
2017-Oct-14 06:29N 53°32' E 009°58'0 0.0
2017-Oct-14 05:59N 53°32' E 009°58'0 0.0
2017-Oct-14 05:26N 53°32' E 009°58'0 0.0
2017-Oct-14 04:59N 53°32' E 009°58'0 0.0
2017-Oct-14 04:28N 53°32' E 009°58'0 0.0
2017-Oct-14 03:58N 53°32' E 009°58'0 0.0
2017-Oct-14 03:28N 53°32' E 009°58'0 0.0
2017-Oct-14 02:58N 53°32' E 009°58'0 0.0
2017-Oct-14 02:30N 53°32' E 009°58'0 0.0
2017-Oct-14 02:00N 53°32' E 009°58'0 0.0
2017-Oct-14 01:30N 53°32' E 009°58'0 0.0
2017-Oct-14 01:00N 53°32' E 009°58'0 0.0
2017-Oct-14 00:30N 53°32' E 009°58'0 0.0
2017-Oct-13 23:59N 53°32' E 009°58'0 0.0
2017-Oct-13 23:29N 53°32' E 009°58'0 0.0
2017-Oct-13 22:59N 53°32' E 009°58'0 0.0
2017-Oct-13 22:29N 53°32' E 009°58'0 0.0
2017-Oct-13 21:58N 53°32' E 009°58'0 0.0
2017-Oct-13 21:28N 53°32' E 009°58'0 0.0
2017-Oct-13 20:58N 53°32' E 009°58'0 0.0
2017-Oct-13 20:28N 53°32' E 009°58'0 0.0
2017-Oct-13 19:58N 53°32' E 009°58'0 0.0
2017-Oct-13 19:30N 53°32' E 009°58'0 0.0
2017-Oct-13 18:57N 53°32' E 009°58'0 0.0
2017-Oct-13 18:30N 53°32' E 009°58'1 2.6
2017-Oct-13 18:01N 53°32' E 009°56'2 4.5
2017-Oct-13 17:29N 53°30' E 009°56'0 0.0
2017-Oct-13 16:59N 53°30' E 009°56'0 0.0
2017-Oct-13 16:29N 53°30' E 009°56'0 0.0
2017-Oct-13 15:58N 53°30' E 009°56'0 0.0
2017-Oct-13 15:28N 53°30' E 009°56'0 0.0
2017-Oct-13 14:58N 53°30' E 009°56'0 0.0
2017-Oct-13 14:28N 53°30' E 009°56'0 0.0
2017-Oct-13 14:00N 53°30' E 009°56'1 1.8
2017-Oct-13 13:31N 53°31' E 009°56'1 2.4
2017-Oct-13 13:00N 53°32' E 009°57'0 0.0
2017-Oct-13 12:30N 53°32' E 009°57'0 0.0
2017-Oct-13 12:00N 53°32' E 009°57'0 0.0
2017-Oct-13 11:30N 53°32' E 009°57'0 0.0
2017-Oct-13 11:00N 53°32' E 009°57'0 0.0
2017-Oct-13 10:29N 53°32' E 009°57'0 0.0
2017-Oct-13 09:59N 53°32' E 009°57'0 0.0
2017-Oct-13 09:29N 53°32' E 009°57'0 0.0
2017-Oct-13 08:59N 53°32' E 009°57'0 0.0
2017-Oct-13 08:28N 53°32' E 009°57'0 0.0
2017-Oct-13 07:58N 53°32' E 009°57'0 0.0
2017-Oct-13 07:28N 53°32' E 009°57'0 0.0
2017-Oct-13 06:58N 53°32' E 009°57'0 0.0
2017-Oct-13 06:30N 53°32' E 009°57'0 0.0
2017-Oct-13 06:00N 53°32' E 009°57'0 0.0
2017-Oct-13 05:30N 53°32' E 009°57'0 0.0
2017-Oct-13 05:00N 53°32' E 009°57'0 0.0
2017-Oct-13 04:30N 53°32' E 009°57'0 0.0
2017-Oct-13 03:59N 53°32' E 009°57'0 0.0
2017-Oct-13 03:30N 53°32' E 009°57'1 2.7
2017-Oct-13 03:00N 53°32' E 009°55'4 8.9
2017-Oct-13 02:30N 53°33' E 009°47'611.5
2017-Oct-13 02:00N 53°35' E 009°38'612.8
2017-Oct-13 01:30N 53°39' E 009°31'612.5
2017-Oct-13 01:01N 53°45' E 009°25'713.1
2017-Oct-13 00:30N 53°50' E 009°20'612.6
2017-Oct-13 00:00N 53°53' E 009°10'1 2.4
2017-Oct-12 23:30N 53°54' E 009°09'1 1.1
2017-Oct-12 23:00N 53°54' E 009°09'3 6.7
2017-Oct-12 22:30N 53°56' E 009°13'3 7.0
2017-Oct-12 22:00N 53°59' E 009°17'3 7.0
2017-Oct-12 21:30N 54°03' E 009°18'3 7.0
2017-Oct-12 21:01N 54°06' E 009°20'3 6.5
2017-Oct-12 20:31N 54°09' E 009°22'2 4.0
2017-Oct-12 20:00N 54°10' E 009°25'3 6.7
2017-Oct-12 19:30N 54°11' E 009°30'4 7.0
2017-Oct-12 19:00N 54°13' E 009°35'3 6.6
2017-Oct-12 18:30N 54°16' E 009°38'3 6.6
2017-Oct-12 18:01N 54°18' E 009°42'2 4.6
2017-Oct-12 17:30N 54°20' E 009°44'2 3.8
2017-Oct-12 17:00N 54°21' E 009°46'4 6.5
2017-Oct-12 16:27N 54°21' E 009°53'23 5.6
2017-Oct-12 12:22N 54°32' E 010°28'512.6
2017-Oct-12 12:00N 54°34' E 010°35'612.9
2017-Oct-12 11:31N 54°35' E 010°46'612.8
2017-Oct-12 11:00N 54°36' E 010°57'612.0
2017-Oct-12 10:30N 54°36' E 011°07'611.9
2017-Oct-12 10:00N 54°34' E 011°17'612.0
2017-Oct-12 09:30N 54°32' E 011°26'611.7
2017-Oct-12 09:00N 54°29' E 011°35'611.9
2017-Oct-12 08:30N 54°27' E 011°45'811.8
2017-Oct-12 07:47N 54°26' E 011°59'312.2
2017-Oct-12 07:30N 54°26' E 012°05'510.6
2017-Oct-12 07:00N 54°29' E 012°13'612.6
2017-Oct-12 06:30N 54°35' E 012°14'611.7
2017-Oct-12 06:00N 54°39' E 012°21'6412.5
2017-Oct-12 00:55N 55°04' E 014°03'512.1
2017-Oct-12 00:30N 55°08' E 014°10'712.4
2017-Oct-11 23:58N 55°13' E 014°18'612.4
2017-Oct-11 23:30N 55°17' E 014°24'612.1
2017-Oct-11 23:00N 55°22' E 014°30'612.2
2017-Oct-11 22:30N 55°26' E 014°37'712.5
2017-Oct-11 21:58N 55°30' E 014°47'712.5
2017-Oct-11 21:23N 55°34' E 014°59'512.6
2017-Oct-11 21:00N 55°36' E 015°06'612.6
2017-Oct-11 20:30N 55°39' E 015°15'612.7
2017-Oct-11 20:01N 55°42' E 015°25'612.8
2017-Oct-11 19:30N 55°45' E 015°35'612.9
2017-Oct-11 19:01N 55°49' E 015°45'713.1
2017-Oct-11 18:31N 55°52' E 015°55'713.1
2017-Oct-11 18:00N 55°55' E 016°05'713.3
2017-Oct-11 17:30N 55°59' E 016°16'713.6
2017-Oct-11 17:00N 56°02' E 016°26'29713.3
2017-Oct-10 18:45N 59°34' E 022°56'314.1
2017-Oct-10 18:30N 59°35' E 023°02'714.0
2017-Oct-10 18:01N 59°37' E 023°15'714.1
2017-Oct-10 17:30N 59°39' E 023°29'714.1
2017-Oct-10 17:00N 59°41' E 023°42'714.3
2017-Oct-10 16:30N 59°43' E 023°55'714.2
2017-Oct-10 16:00N 59°45' E 024°09'26 2.0
2017-Oct-10 03:03N 59°52' E 024°58'1 4.5
2017-Oct-10 02:50N 59°51' E 024°58'2 4.6
2017-Oct-10 02:30N 59°50' E 024°56'2 4.6
2017-Oct-10 02:00N 59°48' E 024°55'2 4.7
2017-Oct-10 01:31N 59°45' E 024°54'2 4.8
2017-Oct-10 01:00N 59°43' E 024°52'2 4.8
2017-Oct-10 00:31N 59°41' E 024°50'2 4.7
2017-Oct-10 00:00N 59°39' E 024°49'3 5.1
2017-Oct-09 23:31N 59°36' E 024°51'3 6.6
2017-Oct-09 23:00N 59°34' E 024°55'4 8.5
2017-Oct-09 22:30N 59°30' E 024°58'0 0.4
2017-Oct-09 22:00N 59°29' E 024°58'0 0.0
2017-Oct-09 21:28N 59°29' E 024°58'0 0.0
2017-Oct-09 21:00N 59°29' E 024°58'0 0.0
2017-Oct-09 20:28N 59°29' E 024°58'0 0.0
2017-Oct-09 19:58N 59°29' E 024°58'0 0.0
2017-Oct-09 19:28N 59°29' E 024°58'0 0.0
2017-Oct-09 19:00N 59°29' E 024°58'0 0.0
2017-Oct-09 18:30N 59°29' E 024°58'0 0.0
2017-Oct-09 18:00N 59°29' E 024°58'0 0.0
2017-Oct-09 17:30N 59°29' E 024°58'0 0.0
2017-Oct-09 16:59N 59°29' E 024°58'0 0.0
2017-Oct-09 16:29N 59°29' E 024°58'0 0.0
2017-Oct-09 15:59N 59°29' E 024°58'0 0.0
2017-Oct-09 15:29N 59°29' E 024°58'0 0.0
2017-Oct-09 15:00N 59°29' E 024°58'0 0.0
2017-Oct-09 14:30N 59°29' E 024°58'0 0.0
2017-Oct-09 14:00N 59°29' E 024°58'0 0.0
2017-Oct-09 13:30N 59°29' E 024°58'0 0.0
2017-Oct-09 12:59N 59°29' E 024°58'0 0.0
2017-Oct-09 12:26N 59°29' E 024°58'0 0.0
2017-Oct-09 11:59N 59°29' E 024°58'0 0.0
2017-Oct-09 11:29N 59°29' E 024°58'0 0.0
2017-Oct-09 10:59N 59°29' E 024°58'  

Dump ship's entire track history